sensor_id;sensor_type;location;lat;lon;timestamp;temperature;humidity
45906;DHT22;31619;49.008;12.106;2023-05-16T15:38:02;16.60;99.90
45906;DHT22;31619;49.008;12.106;2023-05-16T15:40:28;16.40;99.90
45906;DHT22;31619;49.008;12.106;2023-05-16T15:42:53;16.60;99.90
45906;DHT22;31619;49.008;12.106;2023-05-16T15:45:19;16.70;99.90
45906;DHT22;31619;49.008;12.106;2023-05-16T15:47:45;16.80;99.90
45906;DHT22;31619;49.008;12.106;2023-05-16T15:50:11;17.00;99.90
45906;DHT22;31619;49.008;12.106;2023-05-16T15:52:37;17.20;99.90
45906;DHT22;31619;49.008;12.106;2023-05-16T15:55:04;17.40;99.90
45906;DHT22;31619;49.008;12.106;2023-05-16T15:57:30;17.80;99.90
45906;DHT22;31619;49.008;12.106;2023-05-16T15:59:56;17.90;99.90
45906;DHT22;31619;49.008;12.106;2023-05-16T16:02:21;18.00;99.90
45906;DHT22;31619;49.008;12.106;2023-05-16T16:04:47;17.90;99.90
45906;DHT22;31619;49.008;12.106;2023-05-16T16:07:16;17.80;99.90
45906;DHT22;31619;49.008;12.106;2023-05-16T16:09:42;18.00;99.90
45906;DHT22;31619;49.008;12.106;2023-05-16T16:12:07;18.20;99.90
45906;DHT22;31619;49.008;12.106;2023-05-16T16:14:33;18.20;99.90
45906;DHT22;31619;49.008;12.106;2023-05-16T16:16:59;18.40;99.90
45906;DHT22;31619;49.008;12.106;2023-05-16T16:19:24;18.10;99.90
45906;DHT22;31619;49.008;12.106;2023-05-16T16:21:50;18.00;99.90
45906;DHT22;31619;49.008;12.106;2023-05-16T16:24:16;17.90;99.90
45906;DHT22;31619;49.008;12.106;2023-05-16T16:26:42;17.80;99.90
45906;DHT22;31619;49.008;12.106;2023-05-16T16:29:07;17.60;99.90
45906;DHT22;31619;49.008;12.106;2023-05-16T16:31:33;17.50;99.90
45906;DHT22;31619;49.008;12.106;2023-05-16T16:33:59;17.20;99.90
45906;DHT22;31619;49.008;12.106;2023-05-16T16:36:24;17.00;99.90
45906;DHT22;31619;49.008;12.106;2023-05-16T16:38:50;16.70;99.90
45906;DHT22;31619;49.008;12.106;2023-05-16T16:41:16;16.20;99.90
45906;DHT22;31619;49.008;12.106;2023-05-16T16:43:41;15.80;99.90
45906;DHT22;31619;49.008;12.106;2023-05-16T16:46:07;15.50;99.90
45906;DHT22;31619;49.008;12.106;2023-05-16T16:48:33;15.30;99.90
45906;DHT22;31619;49.008;12.106;2023-05-16T16:50:59;15.00;99.90
45906;DHT22;31619;49.008;12.106;2023-05-16T16:53:25;14.90;99.90
45906;DHT22;31619;49.008;12.106;2023-05-16T16:55:51;14.80;99.90
45906;DHT22;31619;49.008;12.106;2023-05-16T16:58:16;14.60;99.90
45906;DHT22;31619;49.008;12.106;2023-05-16T17:00:42;14.50;99.90
45906;DHT22;31619;49.008;12.106;2023-05-16T17:03:09;14.50;99.90
45906;DHT22;31619;49.008;12.106;2023-05-16T17:05:34;14.40;99.90
45906;DHT22;31619;49.008;12.106;2023-05-16T17:08:00;14.40;99.90
45906;DHT22;31619;49.008;12.106;2023-05-16T17:10:26;14.40;99.90
45906;DHT22;31619;49.008;12.106;2023-05-16T17:12:51;14.40;99.90
45906;DHT22;31619;49.008;12.106;2023-05-16T17:15:18;14.30;99.90
45906;DHT22;31619;49.008;12.106;2023-05-16T17:17:44;14.30;99.90
45906;DHT22;31619;49.008;12.106;2023-05-16T17:20:10;14.20;99.90
45906;DHT22;31619;49.008;12.106;2023-05-16T17:22:38;14.20;99.90
45906;DHT22;31619;49.008;12.106;2023-05-16T17:25:04;14.20;99.90
45906;DHT22;31619;49.008;12.106;2023-05-16T17:27:30;14.20;99.90
45906;DHT22;31619;49.008;12.106;2023-05-16T17:29:56;14.10;99.90
45906;DHT22;31619;49.008;12.106;2023-05-16T17:32:22;14.00;99.90
45906;DHT22;31619;49.008;12.106;2023-05-16T17:34:47;13.90;99.90
45906;DHT22;31619;49.008;12.106;2023-05-16T17:37:14;13.90;99.90
45906;DHT22;31619;49.008;12.106;2023-05-16T17:39:40;13.80;99.90
45906;DHT22;31619;49.008;12.106;2023-05-16T17:42:06;13.70;99.90
45906;DHT22;31619;49.008;12.106;2023-05-16T17:44:35;13.60;99.90
45906;DHT22;31619;49.008;12.106;2023-05-16T17:47:01;13.50;99.90
45906;DHT22;31619;49.008;12.106;2023-05-16T17:49:26;13.50;99.90
45906;DHT22;31619;49.008;12.106;2023-05-16T17:51:53;13.40;99.90
45906;DHT22;31619;49.008;12.106;2023-05-16T17:54:20;13.30;99.90
45906;DHT22;31619;49.008;12.106;2023-05-16T17:56:47;13.30;99.90
45906;DHT22;31619;49.008;12.106;2023-05-16T17:59:14;13.30;99.90
45906;DHT22;31619;49.008;12.106;2023-05-16T18:01:40;13.30;99.90
45906;DHT22;31619;49.008;12.106;2023-05-16T18:04:07;13.20;99.90
45906;DHT22;31619;49.008;12.106;2023-05-16T18:06:33;13.10;99.90
45906;DHT22;31619;49.008;12.106;2023-05-16T18:08:59;13.10;99.90
45906;DHT22;31619;49.008;12.106;2023-05-16T18:11:25;13.10;99.90
45906;DHT22;31619;49.008;12.106;2023-05-16T18:13:50;13.00;99.90
45906;DHT22;31619;49.008;12.106;2023-05-16T18:16:16;13.00;99.90
45906;DHT22;31619;49.008;12.106;2023-05-16T18:18:42;13.00;99.90
45906;DHT22;31619;49.008;12.106;2023-05-16T18:21:07;13.00;99.90
45906;DHT22;31619;49.008;12.106;2023-05-16T18:23:33;12.90;99.90
45906;DHT22;31619;49.008;12.106;2023-05-16T18:25:59;12.90;99.90
45906;DHT22;31619;49.008;12.106;2023-05-16T18:28:24;12.80;99.90
45906;DHT22;31619;49.008;12.106;2023-05-16T18:30:50;12.80;99.90
45906;DHT22;31619;49.008;12.106;2023-05-16T18:33:16;12.70;99.90
45906;DHT22;31619;49.008;12.106;2023-05-16T18:35:41;12.70;99.90
45906;DHT22;31619;49.008;12.106;2023-05-16T18:38:07;12.60;99.90
45906;DHT22;31619;49.008;12.106;2023-05-16T18:40:33;12.50;99.90
45906;DHT22;31619;49.008;12.106;2023-05-16T18:42:58;12.50;99.90
45906;DHT22;31619;49.008;12.106;2023-05-16T18:45:24;12.50;99.90
45906;DHT22;31619;49.008;12.106;2023-05-16T18:47:50;12.50;99.90
45906;DHT22;31619;49.008;12.106;2023-05-16T18:50:16;12.40;99.90
45906;DHT22;31619;49.008;12.106;2023-05-16T18:52:41;12.40;99.90
45906;DHT22;31619;49.008;12.106;2023-05-16T18:55:07;12.30;99.90
45906;DHT22;31619;49.008;12.106;2023-05-16T18:57:33;12.20;99.90
45906;DHT22;31619;49.008;12.106;2023-05-16T18:59:59;12.20;99.90
45906;DHT22;31619;49.008;12.106;2023-05-16T19:02:24;12.10;99.90
45906;DHT22;31619;49.008;12.106;2023-05-16T19:04:50;12.00;99.90
45906;DHT22;31619;49.008;12.106;2023-05-16T19:07:16;12.00;99.90
45906;DHT22;31619;49.008;12.106;2023-05-16T19:09:41;12.00;99.90
45906;DHT22;31619;49.008;12.106;2023-05-16T19:12:08;11.90;99.90
45906;DHT22;31619;49.008;12.106;2023-05-16T19:14:35;11.90;99.90
45906;DHT22;31619;49.008;12.106;2023-05-16T19:17:00;11.80;99.90
45906;DHT22;31619;49.008;12.106;2023-05-16T19:19:26;11.80;99.90
45906;DHT22;31619;49.008;12.106;2023-05-16T19:21:51;11.80;99.90
45906;DHT22;31619;49.008;12.106;2023-05-16T19:24:18;11.80;99.90
45906;DHT22;31619;49.008;12.106;2023-05-16T19:26:44;11.70;99.90
45906;DHT22;31619;49.008;12.106;2023-05-16T19:29:09;11.70;99.90
45906;DHT22;31619;49.008;12.106;2023-05-16T19:31:35;11.60;99.90
45906;DHT22;31619;49.008;12.106;2023-05-16T19:34:01;11.60;99.90
45906;DHT22;31619;49.008;12.106;2023-05-16T19:36:27;11.60;99.90
45906;DHT22;31619;49.008;12.106;2023-05-16T19:38:53;11.50;99.90
45906;DHT22;31619;49.008;12.106;2023-05-16T19:41:18;11.50;99.90
45906;DHT22;31619;49.008;12.106;2023-05-16T19:43:44;11.50;99.90
45906;DHT22;31619;49.008;12.106;2023-05-16T19:46:09;11.50;99.90
45906;DHT22;31619;49.008;12.106;2023-05-16T19:48:36;11.50;99.90
45906;DHT22;31619;49.008;12.106;2023-05-16T19:51:01;11.50;99.90
45906;DHT22;31619;49.008;12.106;2023-05-16T19:53:27;11.50;99.90
45906;DHT22;31619;49.008;12.106;2023-05-16T19:55:52;11.60;99.90
45906;DHT22;31619;49.008;12.106;2023-05-16T19:58:18;11.60;99.90
45906;DHT22;31619;49.008;12.106;2023-05-16T20:00:45;11.60;99.90
45906;DHT22;31619;49.008;12.106;2023-05-16T20:03:11;11.60;99.90
45906;DHT22;31619;49.008;12.106;2023-05-16T20:05:36;11.60;99.90
45906;DHT22;31619;49.008;12.106;2023-05-16T20:08:02;11.60;99.90
45906;DHT22;31619;49.008;12.106;2023-05-16T20:10:28;11.60;99.90
45906;DHT22;31619;49.008;12.106;2023-05-16T20:12:54;11.50;99.90
45906;DHT22;31619;49.008;12.106;2023-05-16T20:15:19;11.50;99.90
45906;DHT22;31619;49.008;12.106;2023-05-16T20:17:45;11.50;99.90
45906;DHT22;31619;49.008;12.106;2023-05-16T20:20:10;11.50;99.90
45906;DHT22;31619;49.008;12.106;2023-05-16T20:22:36;11.50;99.90
45906;DHT22;31619;49.008;12.106;2023-05-16T20:25:07;11.40;99.90
45906;DHT22;31619;49.008;12.106;2023-05-16T20:27:33;11.40;99.90
45906;DHT22;31619;49.008;12.106;2023-05-16T20:29:59;11.40;99.90
45906;DHT22;31619;49.008;12.106;2023-05-16T20:32:26;11.50;99.90
45906;DHT22;31619;49.008;12.106;2023-05-16T20:34:52;11.50;99.90
45906;DHT22;31619;49.008;12.106;2023-05-16T20:37:18;11.50;99.90
45906;DHT22;31619;49.008;12.106;2023-05-16T20:39:45;11.50;99.90
45906;DHT22;31619;49.008;12.106;2023-05-16T20:42:10;11.50;99.90
45906;DHT22;31619;49.008;12.106;2023-05-16T20:44:37;11.40;99.90
45906;DHT22;31619;49.008;12.106;2023-05-16T20:47:04;11.40;99.90
45906;DHT22;31619;49.008;12.106;2023-05-16T20:49:31;11.40;99.90
45906;DHT22;31619;49.008;12.106;2023-05-16T20:51:57;11.40;99.90
45906;DHT22;31619;49.008;12.106;2023-05-16T20:54:23;11.40;99.90
45906;DHT22;31619;49.008;12.106;2023-05-16T20:56:49;11.40;99.90
45906;DHT22;31619;49.008;12.106;2023-05-16T20:59:14;11.40;99.90
45906;DHT22;31619;49.008;12.106;2023-05-16T21:01:40;11.40;99.90
45906;DHT22;31619;49.008;12.106;2023-05-16T21:04:05;11.30;99.90
45906;DHT22;31619;49.008;12.106;2023-05-16T21:06:31;11.30;99.90
45906;DHT22;31619;49.008;12.106;2023-05-16T21:08:56;11.30;99.90
45906;DHT22;31619;49.008;12.106;2023-05-16T21:11:22;11.30;99.90
45906;DHT22;31619;49.008;12.106;2023-05-16T21:13:51;11.30;99.90
45906;DHT22;31619;49.008;12.106;2023-05-16T21:16:17;11.20;99.90
45906;DHT22;31619;49.008;12.106;2023-05-16T21:18:42;11.20;99.90
45906;DHT22;31619;49.008;12.106;2023-05-16T21:21:08;11.20;99.90
45906;DHT22;31619;49.008;12.106;2023-05-16T21:23:34;11.10;99.90
45906;DHT22;31619;49.008;12.106;2023-05-16T21:25:59;11.10;99.90
45906;DHT22;31619;49.008;12.106;2023-05-16T21:28:25;11.20;99.90
45906;DHT22;31619;49.008;12.106;2023-05-16T21:30:50;11.10;99.90
45906;DHT22;31619;49.008;12.106;2023-05-16T21:33:16;11.00;99.90
45906;DHT22;31619;49.008;12.106;2023-05-16T21:35:41;11.00;99.90
45906;DHT22;31619;49.008;12.106;2023-05-16T21:38:07;11.00;99.90
45906;DHT22;31619;49.008;12.106;2023-05-16T21:40:32;10.90;99.90
45906;DHT22;31619;49.008;12.106;2023-05-16T21:42:58;10.90;99.90
45906;DHT22;31619;49.008;12.106;2023-05-16T21:45:23;10.90;99.90
45906;DHT22;31619;49.008;12.106;2023-05-16T21:47:49;10.80;99.90
45906;DHT22;31619;49.008;12.106;2023-05-16T21:50:14;10.80;99.90
45906;DHT22;31619;49.008;12.106;2023-05-16T21:52:40;10.80;99.90
45906;DHT22;31619;49.008;12.106;2023-05-16T21:55:06;10.80;99.90
45906;DHT22;31619;49.008;12.106;2023-05-16T21:57:32;10.70;99.90
45906;DHT22;31619;49.008;12.106;2023-05-16T21:59:58;10.70;99.90
45906;DHT22;31619;49.008;12.106;2023-05-16T22:02:23;10.70;99.90
45906;DHT22;31619;49.008;12.106;2023-05-16T22:04:50;10.70;99.90
45906;DHT22;31619;49.008;12.106;2023-05-16T22:07:16;10.60;99.90
45906;DHT22;31619;49.008;12.106;2023-05-16T22:09:42;10.60;99.90
45906;DHT22;31619;49.008;12.106;2023-05-16T22:12:08;10.60;99.90
45906;DHT22;31619;49.008;12.106;2023-05-16T22:14:33;10.60;99.90
45906;DHT22;31619;49.008;12.106;2023-05-16T22:16:59;10.50;99.90
45906;DHT22;31619;49.008;12.106;2023-05-16T22:19:25;10.50;99.90
45906;DHT22;31619;49.008;12.106;2023-05-16T22:21:51;10.50;99.90
45906;DHT22;31619;49.008;12.106;2023-05-16T22:24:17;10.50;99.90
45906;DHT22;31619;49.008;12.106;2023-05-16T22:26:42;10.40;99.90
45906;DHT22;31619;49.008;12.106;2023-05-16T22:29:08;10.40;99.90
45906;DHT22;31619;49.008;12.106;2023-05-16T22:31:33;10.40;99.90
45906;DHT22;31619;49.008;12.106;2023-05-16T22:33:59;10.40;99.90
45906;DHT22;31619;49.008;12.106;2023-05-16T22:36:25;10.40;99.90
45906;DHT22;31619;49.008;12.106;2023-05-16T22:38:51;10.40;99.90
45906;DHT22;31619;49.008;12.106;2023-05-16T22:41:16;10.40;99.90
45906;DHT22;31619;49.008;12.106;2023-05-16T22:43:42;10.40;99.90
45906;DHT22;31619;49.008;12.106;2023-05-16T22:46:08;10.40;99.90
45906;DHT22;31619;49.008;12.106;2023-05-16T22:48:33;10.30;99.90
45906;DHT22;31619;49.008;12.106;2023-05-16T22:50:59;10.40;99.90
45906;DHT22;31619;49.008;12.106;2023-05-16T22:53:25;10.40;99.90
45906;DHT22;31619;49.008;12.106;2023-05-16T22:55:50;10.30;99.90
45906;DHT22;31619;49.008;12.106;2023-05-16T22:58:16;10.30;99.90
45906;DHT22;31619;49.008;12.106;2023-05-16T23:00:42;10.30;99.90
45906;DHT22;31619;49.008;12.106;2023-05-16T23:03:07;10.30;99.90
45906;DHT22;31619;49.008;12.106;2023-05-16T23:05:33;10.20;99.90
45906;DHT22;31619;49.008;12.106;2023-05-16T23:07:58;10.20;99.90
45906;DHT22;31619;49.008;12.106;2023-05-16T23:10:24;10.20;99.90
45906;DHT22;31619;49.008;12.106;2023-05-16T23:12:49;10.10;99.90
45906;DHT22;31619;49.008;12.106;2023-05-16T23:15:15;10.10;99.90
45906;DHT22;31619;49.008;12.106;2023-05-16T23:17:40;10.00;99.90
45906;DHT22;31619;49.008;12.106;2023-05-16T23:20:06;10.00;99.90
45906;DHT22;31619;49.008;12.106;2023-05-16T23:22:32;10.00;99.90
45906;DHT22;31619;49.008;12.106;2023-05-16T23:24:57;10.00;99.90
45906;DHT22;31619;49.008;12.106;2023-05-16T23:27:23;10.00;99.90
45906;DHT22;31619;49.008;12.106;2023-05-16T23:29:49;10.00;99.90
45906;DHT22;31619;49.008;12.106;2023-05-16T23:32:14;10.00;99.90
45906;DHT22;31619;49.008;12.106;2023-05-16T23:34:40;9.90;99.90
45906;DHT22;31619;49.008;12.106;2023-05-16T23:37:05;9.90;99.90
45906;DHT22;31619;49.008;12.106;2023-05-16T23:39:31;9.90;99.90
45906;DHT22;31619;49.008;12.106;2023-05-16T23:41:57;9.90;99.90
45906;DHT22;31619;49.008;12.106;2023-05-16T23:44:24;9.80;99.90
45906;DHT22;31619;49.008;12.106;2023-05-16T23:46:50;9.80;99.90
45906;DHT22;31619;49.008;12.106;2023-05-16T23:49:15;9.80;99.90
45906;DHT22;31619;49.008;12.106;2023-05-16T23:51:41;9.80;99.90
45906;DHT22;31619;49.008;12.106;2023-05-16T23:54:07;9.70;99.90
45906;DHT22;31619;49.008;12.106;2023-05-16T23:56:32;9.70;99.90
45906;DHT22;31619;49.008;12.106;2023-05-16T23:58:58;9.80;99.90
